createdAt,value
2022-07-29T00:00:14.640Z,5.90
2022-07-29T00:02:49.152Z,5.50
2022-07-29T00:05:20.757Z,5.50
2022-07-29T00:07:52.247Z,5.00
2022-07-29T00:10:24.158Z,5.10
2022-07-29T00:12:55.740Z,5.20
2022-07-29T00:15:27.486Z,4.90
2022-07-29T00:17:59.657Z,4.70
2022-07-29T00:20:31.313Z,5.10
2022-07-29T00:23:13.509Z,5.30
2022-07-29T00:25:45.490Z,4.10
2022-07-29T00:28:19.168Z,4.40
2022-07-29T00:30:51.252Z,4.20
2022-07-29T00:33:23.221Z,4.00
2022-07-29T00:35:54.969Z,4.40
2022-07-29T00:38:30.334Z,3.50
2022-07-29T00:41:01.815Z,3.40
2022-07-29T00:43:33.358Z,3.40
2022-07-29T00:46:04.949Z,3.60
2022-07-29T00:48:36.542Z,4.00
2022-07-29T00:51:11.447Z,7.00
2022-07-29T00:53:44.079Z,3.80
2022-07-29T00:56:15.677Z,3.40
2022-07-29T00:58:49.079Z,3.30
2022-07-29T01:01:28.281Z,3.30
2022-07-29T01:04:11.186Z,3.40
2022-07-29T01:06:42.925Z,3.30
2022-07-29T01:09:15.419Z,3.40
2022-07-29T01:12:08.539Z,3.70
2022-07-29T01:14:41.676Z,3.40
2022-07-29T01:17:16.764Z,3.10
2022-07-29T01:20:05.724Z,3.50
2022-07-29T01:22:49.548Z,3.70
2022-07-29T01:25:46.927Z,3.80
2022-07-29T01:29:07.649Z,3.50
2022-07-29T01:31:59.492Z,3.50
2022-07-29T01:34:44.081Z,3.50
2022-07-29T01:37:27.244Z,3.70
2022-07-29T01:40:00.915Z,3.60
2022-07-29T01:42:39.173Z,3.20
2022-07-29T01:45:17.851Z,3.50
2022-07-29T01:48:17.504Z,4.30
2022-07-29T01:50:54.372Z,3.70
2022-07-29T01:53:41.504Z,3.80
2022-07-29T01:56:19.141Z,3.90
2022-07-29T01:59:12.666Z,5.20
2022-07-29T02:01:57.306Z,4.90
2022-07-29T02:04:31.279Z,4.30
2022-07-29T02:07:07.557Z,4.30
2022-07-29T02:09:40.542Z,3.80
2022-07-29T02:12:14.157Z,4.30
2022-07-29T02:14:49.521Z,4.50
2022-07-29T02:17:31.342Z,4.40
2022-07-29T02:20:06.197Z,4.70
2022-07-29T02:22:40.729Z,4.40
2022-07-29T02:25:14.738Z,4.90
2022-07-29T02:28:02.780Z,4.90
2022-07-29T02:30:35.460Z,6.10
2022-07-29T02:33:08.747Z,5.90
2022-07-29T02:35:45.742Z,5.90
2022-07-29T02:38:40.166Z,5.80
2022-07-29T02:41:21.356Z,5.40
2022-07-29T02:43:56.748Z,4.60
2022-07-29T02:46:33.349Z,4.70
2022-07-29T02:49:11.780Z,4.40
2022-07-29T02:51:49.287Z,4.20
2022-07-29T02:54:29.136Z,4.30
2022-07-29T02:57:08.795Z,3.90
2022-07-29T03:02:19.119Z,3.90
2022-07-29T03:04:52.517Z,3.80
2022-07-29T03:07:25.168Z,3.70
2022-07-29T03:10:04.598Z,3.50
2022-07-29T03:12:36.130Z,3.50
2022-07-29T03:15:09.945Z,3.40
2022-07-29T03:17:46.455Z,3.20
2022-07-29T03:20:18.463Z,2.70
2022-07-29T03:22:50.122Z,3.30
2022-07-29T03:25:24.749Z,4.00
2022-07-29T03:27:57.659Z,4.10
2022-07-29T03:30:31.868Z,3.40
2022-07-29T03:33:13.496Z,3.10
2022-07-29T03:35:45.629Z,2.90
2022-07-29T03:38:17.076Z,2.50
2022-07-29T03:41:04.230Z,2.00
2022-07-29T03:43:40.045Z,1.80
2022-07-29T03:46:23.642Z,1.90
2022-07-29T03:48:59.527Z,2.00
2022-07-29T03:51:34.083Z,2.00
2022-07-29T03:54:10.139Z,2.10
2022-07-29T03:56:48.761Z,2.20
2022-07-29T03:59:23.150Z,2.20
2022-07-29T04:02:00.372Z,1.90
2022-07-29T04:04:34.462Z,2.20
2022-07-29T04:07:06.462Z,2.30
2022-07-29T04:09:38.099Z,2.30
2022-07-29T04:12:10.509Z,1.90
2022-07-29T04:14:41.912Z,2.30
2022-07-29T04:17:13.601Z,2.00
2022-07-29T04:19:45.117Z,2.10
2022-07-29T04:22:16.499Z,2.30
2022-07-29T04:24:48.028Z,2.70
2022-07-29T04:27:19.651Z,2.70
2022-07-29T04:29:56.789Z,2.60
2022-07-29T04:32:29.204Z,2.10
2022-07-29T04:35:00.953Z,2.50
2022-07-29T04:37:32.424Z,2.20
2022-07-29T04:40:11.557Z,2.30
2022-07-29T04:42:46.458Z,2.30
2022-07-29T04:45:22.488Z,2.40
2022-07-29T04:47:54.646Z,2.40
2022-07-29T04:50:28.636Z,2.30
2022-07-29T04:53:00.013Z,2.40
2022-07-29T04:55:52.739Z,2.30
2022-07-29T04:58:25.432Z,2.60
2022-07-29T05:00:56.875Z,2.80
2022-07-29T05:03:28.232Z,2.30
2022-07-29T05:06:05.081Z,2.30
2022-07-29T05:08:38.900Z,2.40
2022-07-29T05:11:23.179Z,2.60
2022-07-29T05:13:56.535Z,2.30
2022-07-29T05:16:28.979Z,2.10
2022-07-29T05:19:00.562Z,2.40
2022-07-29T05:21:32.199Z,2.30
2022-07-29T05:24:14.016Z,2.50
2022-07-29T05:26:47.698Z,2.80
2022-07-29T05:29:42.863Z,3.10
2022-07-29T05:32:10.767Z,3.00
2022-07-29T05:34:51.124Z,3.20
2022-07-29T05:37:26.732Z,3.10
2022-07-29T05:39:59.206Z,3.30
2022-07-29T05:42:30.868Z,3.20
2022-07-29T05:45:02.612Z,3.10
2022-07-29T05:47:37.118Z,3.20
2022-07-29T05:50:10.905Z,3.20
2022-07-29T05:52:45.480Z,3.60
2022-07-29T05:55:17.086Z,3.20
2022-07-29T05:57:48.664Z,3.50
2022-07-29T06:00:31.458Z,3.30
2022-07-29T06:03:21.792Z,3.20
2022-07-29T06:06:08.457Z,3.40
2022-07-29T06:08:41.355Z,3.50
2022-07-29T06:11:15.085Z,3.30
2022-07-29T06:13:51.197Z,3.70
2022-07-29T06:16:29.833Z,3.10
2022-07-29T06:19:01.801Z,3.40
2022-07-29T06:21:35.907Z,3.50
2022-07-29T06:24:10.833Z,3.70
2022-07-29T06:27:02.660Z,3.50
2022-07-29T06:29:34.177Z,3.80
2022-07-29T06:32:07.446Z,3.30
2022-07-29T06:34:43.053Z,3.40
2022-07-29T06:37:37.885Z,3.30
2022-07-29T06:40:32.672Z,3.10
2022-07-29T06:43:04.168Z,2.60
2022-07-29T06:45:49.862Z,2.80
2022-07-29T06:48:21.550Z,3.30
2022-07-29T06:51:02.908Z,3.00
2022-07-29T06:53:59.526Z,3.10
2022-07-29T06:56:40.265Z,3.30
2022-07-29T06:59:13.546Z,3.50
2022-07-29T07:01:46.000Z,3.80
2022-07-29T07:04:30.523Z,3.40
2022-07-29T07:07:01.956Z,3.30
2022-07-29T07:09:42.813Z,3.30
2022-07-29T07:12:14.487Z,3.20
2022-07-29T07:14:46.257Z,3.30
2022-07-29T07:17:21.357Z,3.40
2022-07-29T07:20:13.936Z,3.00
2022-07-29T07:22:49.217Z,3.00
2022-07-29T07:25:23.071Z,2.70
2022-07-29T07:27:54.501Z,2.20
2022-07-29T07:30:25.942Z,2.60
2022-07-29T07:32:59.618Z,2.50
2022-07-29T07:35:31.015Z,2.50
2022-07-29T07:38:02.666Z,2.40
2022-07-29T07:40:37.504Z,2.50
2022-07-29T07:43:18.051Z,2.70
2022-07-29T07:45:49.605Z,2.50
2022-07-29T07:48:23.867Z,2.10
2022-07-29T07:50:55.279Z,2.10
2022-07-29T07:53:27.087Z,2.40
2022-07-29T07:56:13.916Z,2.10
2022-07-29T07:58:48.210Z,2.60
2022-07-29T08:01:22.375Z,1.90
2022-07-29T08:03:54.145Z,2.00
2022-07-29T08:06:28.398Z,1.60
2022-07-29T08:09:26.591Z,2.10
2022-07-29T08:11:52.390Z,2.10
2022-07-29T08:14:24.054Z,1.70
2022-07-29T08:16:55.518Z,1.90
2022-07-29T08:19:27.043Z,1.90
2022-07-29T08:21:58.469Z,2.00
2022-07-29T08:24:45.409Z,1.90
2022-07-29T08:27:43.042Z,1.90
2022-07-29T08:30:15.647Z,2.10
2022-07-29T08:32:55.489Z,1.90
2022-07-29T08:35:30.923Z,1.60
2022-07-29T08:38:04.928Z,1.60
2022-07-29T08:40:36.498Z,1.50
2022-07-29T08:43:11.328Z,1.80
2022-07-29T08:45:48.915Z,1.60
2022-07-29T08:48:24.709Z,1.50
2022-07-29T08:50:58.106Z,1.60
2022-07-29T08:53:31.741Z,1.30
2022-07-29T08:56:04.138Z,1.50
2022-07-29T08:58:38.495Z,1.60
2022-07-29T09:01:13.032Z,1.30
2022-07-29T09:03:48.613Z,1.40
2022-07-29T09:06:23.670Z,1.30
2022-07-29T09:08:55.656Z,1.40
2022-07-29T09:11:27.484Z,1.30
2022-07-29T09:13:58.948Z,1.40
2022-07-29T09:16:53.062Z,1.60
2022-07-29T09:19:27.805Z,1.20
2022-07-29T09:22:00.453Z,1.20
2022-07-29T09:24:45.638Z,1.20
2022-07-29T09:27:23.694Z,1.30
2022-07-29T09:30:03.707Z,1.30
2022-07-29T09:32:35.701Z,1.10
2022-07-29T09:35:22.027Z,1.30
2022-07-29T09:37:53.865Z,0.90
2022-07-29T09:40:26.849Z,1.00
2022-07-29T09:42:59.566Z,0.90
2022-07-29T09:45:35.959Z,0.90
2022-07-29T09:48:18.467Z,1.10
2022-07-29T09:50:50.941Z,1.10
2022-07-29T09:53:36.363Z,1.30
2022-07-29T09:56:11.850Z,1.20
2022-07-29T09:58:44.323Z,1.00
2022-07-29T10:01:16.979Z,1.00
2022-07-29T10:03:57.830Z,1.50
2022-07-29T10:06:29.494Z,1.10
2022-07-29T10:09:11.262Z,1.00
2022-07-29T10:11:49.319Z,1.20
2022-07-29T10:14:21.777Z,1.10
2022-07-29T10:16:53.515Z,1.40
2022-07-29T10:19:24.912Z,1.50
2022-07-29T10:21:58.233Z,1.30
2022-07-29T10:24:31.787Z,1.60
2022-07-29T10:27:04.587Z,1.40
2022-07-29T10:29:36.970Z,1.50
2022-07-29T10:32:37.331Z,1.40
2022-07-29T10:35:27.464Z,1.50
2022-07-29T10:38:16.535Z,1.30
2022-07-29T10:41:19.350Z,1.30
2022-07-29T10:43:53.600Z,1.20
2022-07-29T10:46:26.372Z,1.70
2022-07-29T10:49:15.560Z,1.60
2022-07-29T10:52:01.650Z,1.40
2022-07-29T10:54:51.335Z,1.70
2022-07-29T10:57:53.340Z,1.20
2022-07-29T11:00:35.026Z,1.30
2022-07-29T11:03:10.499Z,1.30
2022-07-29T11:06:08.612Z,1.40
2022-07-29T11:08:40.241Z,1.30
2022-07-29T11:11:34.989Z,1.40
2022-07-29T11:14:10.330Z,1.40
2022-07-29T11:17:06.519Z,1.40
2022-07-29T11:19:45.725Z,1.80
2022-07-29T11:22:45.855Z,5.10
2022-07-29T11:25:42.425Z,1.80
2022-07-29T11:28:23.141Z,1.80
2022-07-29T11:30:57.778Z,16.60
2022-07-29T11:33:54.458Z,6.50
2022-07-29T11:36:28.165Z,2.10
2022-07-29T11:39:36.917Z,1.80
2022-07-29T11:42:42.009Z,1.80
2022-07-29T11:45:41.293Z,1.80
2022-07-29T11:48:31.528Z,1.60
2022-07-29T11:51:11.195Z,1.70
2022-07-29T11:53:52.549Z,1.50
2022-07-29T11:56:25.920Z,2.90
2022-07-29T11:59:08.510Z,1.90
2022-07-29T12:02:06.685Z,1.60
2022-07-29T12:04:53.930Z,1.70
2022-07-29T12:07:32.678Z,1.50
2022-07-29T12:10:11.644Z,1.60
2022-07-29T12:13:02.749Z,1.80
2022-07-29T12:15:46.927Z,1.60
2022-07-29T12:18:24.264Z,1.90
2022-07-29T12:21:04.873Z,1.90
2022-07-29T12:23:39.168Z,1.40
2022-07-29T12:26:21.701Z,1.30
2022-07-29T12:29:11.201Z,1.50
2022-07-29T12:31:45.491Z,1.00
2022-07-29T12:34:31.002Z,0.80
2022-07-29T12:37:03.053Z,0.60
2022-07-29T12:39:34.522Z,0.60
2022-07-29T12:42:18.251Z,0.90
2022-07-29T12:44:52.585Z,0.60
2022-07-29T12:47:24.577Z,0.70
2022-07-29T12:50:12.403Z,0.70
2022-07-29T12:52:43.772Z,0.70
2022-07-29T12:55:17.695Z,0.80
2022-07-29T12:57:54.560Z,0.80
2022-07-29T13:00:28.081Z,0.90
2022-07-29T13:03:02.424Z,0.70
2022-07-29T13:05:49.312Z,0.70
2022-07-29T13:08:22.357Z,0.70
2022-07-29T13:10:54.408Z,0.70
2022-07-29T13:13:25.719Z,0.60
2022-07-29T13:16:10.144Z,0.80
2022-07-29T13:18:42.530Z,0.60
2022-07-29T13:21:18.884Z,0.60
2022-07-29T13:26:23.494Z,1.00
2022-07-29T13:28:55.007Z,1.20
2022-07-29T13:31:26.298Z,1.00
2022-07-29T13:33:57.821Z,1.20
2022-07-29T13:36:29.141Z,1.20
2022-07-29T13:39:02.336Z,0.80
2022-07-29T13:41:36.467Z,0.60
2022-07-29T13:44:08.589Z,0.70
2022-07-29T13:46:40.105Z,0.70
2022-07-29T13:49:12.472Z,0.60
2022-07-29T13:51:43.753Z,0.60
2022-07-29T13:54:15.130Z,0.50
2022-07-29T13:56:47.124Z,0.70
2022-07-29T13:59:18.669Z,0.50
2022-07-29T14:01:50.032Z,0.60
2022-07-29T14:04:22.879Z,0.40
2022-07-29T14:06:54.544Z,0.80
2022-07-29T14:09:26.094Z,0.70
2022-07-29T14:11:57.936Z,1.00
2022-07-29T14:14:30.635Z,0.60
2022-07-29T14:17:04.395Z,0.60
2022-07-29T14:19:39.298Z,0.70
2022-07-29T14:22:11.678Z,0.60
2022-07-29T14:24:43.206Z,0.70
2022-07-29T14:27:14.626Z,0.50
2022-07-29T14:29:46.140Z,0.80
2022-07-29T14:32:17.434Z,0.70
2022-07-29T14:34:49.410Z,0.60
2022-07-29T14:37:20.803Z,0.70
2022-07-29T14:40:00.679Z,0.60
2022-07-29T14:42:32.809Z,0.80
2022-07-29T14:45:04.780Z,0.70
2022-07-29T14:47:36.218Z,0.70
2022-07-29T14:50:09.857Z,0.70
2022-07-29T14:52:41.181Z,0.70
2022-07-29T14:55:19.402Z,0.70
2022-07-29T14:57:54.325Z,0.70
2022-07-29T15:00:33.427Z,0.60
2022-07-29T15:03:05.806Z,0.60
2022-07-29T15:05:37.878Z,0.60
2022-07-29T15:08:10.355Z,0.70
2022-07-29T15:10:41.808Z,0.60
2022-07-29T15:13:13.130Z,0.70
2022-07-29T15:15:45.638Z,0.70
2022-07-29T15:18:25.592Z,0.70
2022-07-29T15:20:58.619Z,0.70
2022-07-29T15:23:30.499Z,0.70
2022-07-29T15:26:02.305Z,0.70
2022-07-29T15:28:36.097Z,0.70
2022-07-29T15:31:11.598Z,0.60
2022-07-29T15:33:43.805Z,0.80
2022-07-29T15:36:42.155Z,0.70
2022-07-29T15:39:11.558Z,0.60
2022-07-29T15:41:44.851Z,0.60
2022-07-29T15:44:18.517Z,0.80
2022-07-29T15:47:07.797Z,0.70
2022-07-29T15:49:47.666Z,0.80
2022-07-29T15:52:26.235Z,0.70
2022-07-29T15:54:59.075Z,0.90
2022-07-29T15:57:30.469Z,0.80
2022-07-29T16:00:02.501Z,0.80
2022-07-29T16:02:39.491Z,0.70
2022-07-29T16:05:11.431Z,0.80
2022-07-29T16:07:42.829Z,0.70
2022-07-29T16:10:14.152Z,0.70
2022-07-29T16:12:45.730Z,0.90
2022-07-29T16:15:17.256Z,0.70
2022-07-29T16:17:50.600Z,0.60
2022-07-29T16:20:22.508Z,0.80
2022-07-29T16:22:54.019Z,0.70
2022-07-29T16:25:43.997Z,0.60
2022-07-29T16:28:17.406Z,0.60
2022-07-29T16:30:48.789Z,0.80
2022-07-29T16:33:20.234Z,0.60
2022-07-29T16:35:51.580Z,0.90
2022-07-29T16:38:22.922Z,0.90
2022-07-29T16:40:54.309Z,0.80
2022-07-29T16:43:25.737Z,0.80
2022-07-29T16:45:57.177Z,0.90
2022-07-29T16:48:28.593Z,0.90
2022-07-29T16:50:59.964Z,1.00
2022-07-29T16:53:31.482Z,0.80
2022-07-29T16:56:02.968Z,0.70
2022-07-29T16:58:34.444Z,0.70
2022-07-29T17:01:06.745Z,0.90
2022-07-29T17:04:00.182Z,1.00
2022-07-29T17:06:32.858Z,0.80
2022-07-29T17:09:04.508Z,0.80
2022-07-29T17:11:52.834Z,0.90
2022-07-29T17:14:29.896Z,0.80
2022-07-29T17:17:13.499Z,0.90
2022-07-29T17:19:47.254Z,1.10
2022-07-29T17:22:19.521Z,1.00
2022-07-29T17:24:53.577Z,1.00
2022-07-29T17:27:26.814Z,0.90
2022-07-29T17:29:58.689Z,1.00
2022-07-29T17:32:36.594Z,1.10
2022-07-29T17:35:29.954Z,1.30
2022-07-29T17:38:01.224Z,1.00
2022-07-29T17:40:34.839Z,1.10
2022-07-29T17:43:09.346Z,1.10
2022-07-29T17:45:48.753Z,1.00
2022-07-29T17:48:23.809Z,1.10
2022-07-29T17:50:57.413Z,1.40
2022-07-29T17:53:28.789Z,0.90
2022-07-29T17:56:00.260Z,1.00
2022-07-29T17:58:33.443Z,1.10
2022-07-29T18:01:05.078Z,1.50
2022-07-29T18:03:39.410Z,1.00
2022-07-29T18:06:11.744Z,1.10
2022-07-29T18:08:47.606Z,1.30
2022-07-29T18:11:19.102Z,1.20
2022-07-29T18:13:53.432Z,1.00
2022-07-29T18:16:25.063Z,1.60
2022-07-29T18:18:56.362Z,1.20
2022-07-29T18:21:38.136Z,1.20
2022-07-29T18:24:21.841Z,1.30
2022-07-29T18:26:53.313Z,0.90
2022-07-29T18:29:47.101Z,1.20
2022-07-29T18:33:19.293Z,1.20
2022-07-29T18:35:47.538Z,1.20
2022-07-29T18:38:19.134Z,1.40
2022-07-29T18:40:51.052Z,1.10
2022-07-29T18:43:22.459Z,1.20
2022-07-29T18:45:53.822Z,1.20
2022-07-29T18:48:25.307Z,1.20
2022-07-29T18:50:57.853Z,0.90
2022-07-29T18:53:29.223Z,1.30
2022-07-29T18:56:02.133Z,1.60
2022-07-29T18:58:42.545Z,1.40
2022-07-29T19:01:16.780Z,1.80
2022-07-29T19:03:48.353Z,1.70
2022-07-29T19:06:25.372Z,1.10
2022-07-29T19:09:00.447Z,1.40
2022-07-29T19:11:32.585Z,1.50
2022-07-29T19:14:04.774Z,1.20
2022-07-29T19:16:36.908Z,1.50
2022-07-29T19:19:08.405Z,1.30
2022-07-29T19:21:39.946Z,1.40
2022-07-29T19:24:15.388Z,1.30
2022-07-29T19:26:49.733Z,1.40
2022-07-29T19:29:21.278Z,1.20
2022-07-29T19:31:52.641Z,1.40
2022-07-29T19:34:24.064Z,1.30
2022-07-29T19:36:58.300Z,1.30
2022-07-29T19:39:31.917Z,1.10
2022-07-29T19:42:10.367Z,1.00
2022-07-29T19:44:41.690Z,1.40
2022-07-29T19:47:17.359Z,1.00
2022-07-29T19:49:49.108Z,1.10
2022-07-29T19:52:20.550Z,1.10
2022-07-29T19:54:52.115Z,1.40
2022-07-29T19:57:24.226Z,1.10
2022-07-29T19:59:56.243Z,1.20
2022-07-29T20:02:27.946Z,1.00
2022-07-29T20:04:59.651Z,1.00
2022-07-29T20:07:31.247Z,1.00
2022-07-29T20:10:08.084Z,1.10
2022-07-29T20:12:42.760Z,1.10
2022-07-29T20:15:16.569Z,1.00
2022-07-29T20:17:48.363Z,0.90
2022-07-29T20:20:20.166Z,1.00
2022-07-29T20:22:52.396Z,0.90
2022-07-29T20:25:24.104Z,0.90
2022-07-29T20:27:55.610Z,0.80
2022-07-29T20:30:27.753Z,0.80
2022-07-29T20:33:00.877Z,1.10
2022-07-29T20:35:32.469Z,0.80
2022-07-29T20:38:04.144Z,0.80
2022-07-29T20:40:36.145Z,0.90
2022-07-29T20:43:09.378Z,0.80
2022-07-29T20:45:43.857Z,0.60
2022-07-29T20:48:15.464Z,0.90
2022-07-29T20:50:49.019Z,0.70
2022-07-29T20:53:23.993Z,0.70
2022-07-29T20:55:55.520Z,0.70
2022-07-29T20:58:27.134Z,0.80
2022-07-29T21:00:58.570Z,0.70
2022-07-29T21:03:34.270Z,0.70
2022-07-29T21:06:05.935Z,1.00
2022-07-29T21:08:40.545Z,0.80
2022-07-29T21:11:12.267Z,1.10
2022-07-29T21:13:46.307Z,0.80
2022-07-29T21:16:20.908Z,0.80
2022-07-29T21:18:53.387Z,0.60
2022-07-29T21:21:24.893Z,0.60
2022-07-29T21:23:56.238Z,0.70
2022-07-29T21:26:30.426Z,0.80
2022-07-29T21:29:01.885Z,0.70
2022-07-29T21:31:33.437Z,0.70
2022-07-29T21:34:04.993Z,0.70
2022-07-29T21:36:48.253Z,0.70
2022-07-29T21:39:20.340Z,1.10
2022-07-29T21:41:51.967Z,0.70
2022-07-29T21:44:25.722Z,0.70
2022-07-29T21:47:00.368Z,1.00
2022-07-29T21:49:32.000Z,0.80
2022-07-29T21:52:08.097Z,0.80
2022-07-29T21:54:49.445Z,0.90
2022-07-29T21:57:21.751Z,0.90
2022-07-29T21:59:59.572Z,0.80
2022-07-29T22:02:34.068Z,1.00
2022-07-29T22:05:05.880Z,0.80
2022-07-29T22:07:56.167Z,1.10
2022-07-29T22:10:33.696Z,1.20
2022-07-29T22:13:19.052Z,0.90
2022-07-29T22:15:50.570Z,0.80
2022-07-29T22:18:28.448Z,0.80
2022-07-29T22:21:03.240Z,0.80
2022-07-29T22:23:34.769Z,1.00
2022-07-29T22:26:14.667Z,0.90
2022-07-29T22:28:48.718Z,0.90
2022-07-29T22:31:20.450Z,0.80
2022-07-29T22:33:57.382Z,0.90
2022-07-29T22:36:37.902Z,1.00
2022-07-29T22:39:16.157Z,1.10
2022-07-29T22:41:48.187Z,0.90
2022-07-29T22:44:20.402Z,1.00
2022-07-29T22:46:52.207Z,1.00
2022-07-29T22:49:24.206Z,0.90
2022-07-29T22:51:59.005Z,0.90
2022-07-29T22:54:30.928Z,1.00
2022-07-29T22:57:02.933Z,0.90
2022-07-29T22:59:34.883Z,1.00
2022-07-29T23:02:08.791Z,1.00
2022-07-29T23:04:46.449Z,1.00
2022-07-29T23:07:18.202Z,1.00
2022-07-29T23:09:57.840Z,0.90
2022-07-29T23:12:31.293Z,0.90
2022-07-29T23:15:04.351Z,1.00
2022-07-29T23:17:36.888Z,1.00
2022-07-29T23:20:11.628Z,1.00
2022-07-29T23:22:56.633Z,1.20
2022-07-29T23:25:28.189Z,1.00
2022-07-29T23:27:59.514Z,1.00
2022-07-29T23:30:31.446Z,1.00
2022-07-29T23:33:03.043Z,1.00
2022-07-29T23:35:38.948Z,1.00
2022-07-29T23:38:12.707Z,1.10
2022-07-29T23:40:44.264Z,1.00
2022-07-29T23:43:17.111Z,1.10
2022-07-29T23:45:51.417Z,0.90
2022-07-29T23:48:25.500Z,1.20
2022-07-29T23:50:57.455Z,0.90
2022-07-29T23:53:32.163Z,1.00
2022-07-29T23:56:06.573Z,1.00
2022-07-29T23:58:38.621Z,1.10
